Time;durP1;ratioP1;P1;durP2;ratioP2;P2;SDS_P1;SDS_P2;PMS_P1;PMS_P2;Temp;Humidity;BMP_temperature;BMP_pressure;BME280_temperature;BME280_humidity;BME280_pressure;Samples;Min_cycle;Max_cycle;Signal;HPM_P1;HPM_P2
2022/03/09 00:01:40;;;;;;;20.05;8.68;;;;;;;;;;6318886;28;20047;-74
2022/03/09 00:04:43;;;;;;;19.10;8.30;;;;;;;;;;6318326;28;20432;-74
2022/03/09 00:07:48;;;;;;;18.70;8.25;;;;;;;;;;6318803;28;20192;-73
2022/03/09 00:10:57;;;;;;;20.42;7.95;;;;;;;;;;6317923;28;20059;-73
2022/03/09 00:14:00;;;;;;;17.98;8.25;;;;;;;;;;6317915;28;20047;-73
2022/03/09 00:17:04;;;;;;;19.27;8.60;;;;;;;;;;6299523;28;20048;-73
2022/03/09 00:20:08;;;;;;;17.13;8.15;;;;;;;;;;6299938;28;20119;-73
2022/03/09 00:23:13;;;;;;;18.02;8.20;;;;;;;;;;6318321;28;20044;-72
2022/03/09 00:26:18;;;;;;;18.73;8.93;;;;;;;;;;6316654;28;20051;-73
2022/03/09 00:29:24;;;;;;;20.45;8.98;;;;;;;;;;6295611;28;20044;-73
2022/03/09 00:32:27;;;;;;;20.13;8.65;;;;;;;;;;6315099;28;20475;-73
2022/03/09 00:35:32;;;;;;;18.88;8.65;;;;;;;;;;6298487;28;20056;-73
2022/03/09 00:38:42;;;;;;;21.05;7.75;;;;;;;;;;6317907;28;20062;-73
2022/03/09 00:41:46;;;;;;;16.10;8.02;;;;;;;;;;6298962;28;20040;-74
2022/03/09 00:44:49;;;;;;;17.52;9.35;;;;;;;;;;6316230;28;20402;-73
2022/03/09 00:47:52;;;;;;;19.33;7.88;;;;;;;;;;6295716;28;20067;-73
2022/03/09 00:50:56;;;;;;;18.95;7.90;;;;;;;;;;6295426;28;20157;-73
2022/03/09 00:54:00;;;;;;;17.27;7.75;;;;;;;;;;6295826;28;20040;-74
2022/03/09 00:57:06;;;;;;;18.08;8.52;;;;;;;;;;6295296;28;20478;-73
2022/03/09 01:00:10;;;;;;;15.82;7.88;;;;;;;;;;6314243;28;20040;-73
2022/03/09 01:03:33;;;;;;;16.40;7.57;;;;;;;;;;6316997;28;20036;-73
2022/03/09 01:06:37;;;;;;;18.35;8.45;;;;;;;;;;6317368;28;20048;-73
2022/03/09 01:09:42;;;;;;;21.10;8.48;;;;;;;;;;6316379;28;20413;-72
2022/03/09 01:12:46;;;;;;;16.70;8.33;;;;;;;;;;6299609;28;20057;-74
2022/03/09 01:15:49;;;;;;;18.23;8.43;;;;;;;;;;6316973;28;20288;-73
2022/03/09 01:18:52;;;;;;;18.80;8.23;;;;;;;;;;6298041;28;20044;-73
2022/03/09 01:21:58;;;;;;;18.02;7.85;;;;;;;;;;6317162;28;20052;-73
2022/03/09 01:25:03;;;;;;;18.52;7.80;;;;;;;;;;6316965;28;20047;-73
2022/03/09 01:28:06;;;;;;;15.45;7.43;;;;;;;;;;6317003;28;20048;-74
2022/03/09 01:31:10;;;;;;;21.95;8.45;;;;;;;;;;6297925;28;20372;-73
2022/03/09 01:34:13;;;;;;;14.02;6.55;;;;;;;;;;6299106;28;20059;-71
2022/03/09 01:37:16;;;;;;;13.05;6.85;;;;;;;;;;6316614;28;20043;-71
2022/03/09 01:40:20;;;;;;;16.35;6.65;;;;;;;;;;6298359;28;20040;-72
2022/03/09 01:43:27;;;;;;;16.70;7.75;;;;;;;;;;6316940;28;20050;-71
2022/03/09 01:46:30;;;;;;;20.92;7.47;;;;;;;;;;6316504;28;20043;-71
2022/03/09 01:49:33;;;;;;;13.95;7.03;;;;;;;;;;6298212;28;20055;-72
2022/03/09 01:52:36;;;;;;;19.13;7.65;;;;;;;;;;6298042;28;20033;-72
2022/03/09 01:55:43;;;;;;;18.13;7.70;;;;;;;;;;6302794;28;20167;-74
2022/03/09 01:58:47;;;;;;;15.85;7.40;;;;;;;;;;6321716;28;20048;-72
2022/03/09 02:01:50;;;;;;;18.70;8.32;;;;;;;;;;6302954;28;20052;-72
2022/03/09 02:04:53;;;;;;;19.30;7.38;;;;;;;;;;6303851;28;20044;-74
2022/03/09 02:11:22;;;;;;;18.00;8.35;;;;;;;;;;6321581;28;20047;-74
2022/03/09 02:14:28;;;;;;;19.55;8.65;;;;;;;;;;6320617;28;20511;-74
2022/03/09 02:17:33;;;;;;;;;;;;;;;;;;6303922;28;20162;-74
2022/03/09 02:20:42;;;;;;;14.98;7.03;;;;;;;;;;6321002;28;19924;-74
2022/03/09 02:23:47;;;;;;;15.15;7.22;;;;;;;;;;6320853;28;20375;-74
2022/03/09 02:26:50;;;;;;;14.93;6.55;;;;;;;;;;6321287;28;20048;-72
2022/03/09 02:29:54;;;;;;;13.30;7.30;;;;;;;;;;6303134;28;20524;-72
2022/03/09 02:32:57;;;;;;;15.43;7.47;;;;;;;;;;6302986;28;20085;-72
2022/03/09 02:36:00;;;;;;;18.52;7.60;;;;;;;;;;6299824;28;20040;-72
2022/03/09 02:39:06;;;;;;;17.20;6.90;;;;;;;;;;6301829;28;20040;-72
2022/03/09 02:42:12;;;;;;;23.92;7.40;;;;;;;;;;6320383;28;20055;-72
2022/03/09 02:45:18;;;;;;;15.68;7.32;;;;;;;;;;6301234;28;20044;-72
2022/03/09 02:48:21;;;;;;;17.77;7.68;;;;;;;;;;6320177;28;20046;-73
2022/03/09 02:51:24;;;;;;;17.30;8.40;;;;;;;;;;6320509;28;20047;-73
2022/03/09 02:54:29;;;;;;;14.27;6.53;;;;;;;;;;6320198;28;20113;-72
2022/03/09 02:57:32;;;;;;;16.13;6.40;;;;;;;;;;6318107;28;20054;-72
2022/03/09 03:00:37;;;;;;;14.77;7.20;;;;;;;;;;6318822;28;20127;-72
2022/03/09 03:03:40;;;;;;;12.57;6.53;;;;;;;;;;6300481;28;20052;-72
2022/03/09 03:06:44;;;;;;;12.85;7.13;;;;;;;;;;6299511;28;20047;-73
2022/03/09 03:09:51;;;;;;;13.38;6.30;;;;;;;;;;6300985;28;20040;-73
2022/03/09 03:12:55;;;;;;;15.88;6.53;;;;;;;;;;6301885;28;20433;-73
2022/03/09 03:15:58;;;;;;;15.20;6.78;;;;;;;;;;6301589;28;20055;-73
2022/03/09 03:19:03;;;;;;;15.20;6.90;;;;;;;;;;6301791;28;20051;-73
2022/03/09 03:22:06;;;;;;;12.65;5.90;;;;;;;;;;6301937;28;20494;-73
2022/03/09 03:25:12;;;;;;;12.65;6.10;;;;;;;;;;6320154;28;20097;-74
2022/03/09 03:28:22;;;;;;;18.73;7.05;;;;;;;;;;6319116;28;20587;-73
2022/03/09 03:31:29;;;;;;;14.63;6.55;;;;;;;;;;6302538;28;20040;-73
2022/03/09 03:34:35;;;;;;;14.73;6.32;;;;;;;;;;6301493;28;20044;-73
2022/03/09 03:37:40;;;;;;;14.43;6.10;;;;;;;;;;6319750;28;20417;-73
2022/03/09 03:40:45;;;;;;;15.23;6.85;;;;;;;;;;6301204;28;20348;-73
2022/03/09 03:43:48;;;;;;;13.55;5.97;;;;;;;;;;6319744;28;20131;-72
2022/03/09 03:46:51;;;;;;;13.00;5.97;;;;;;;;;;6319586;28;20047;-73
2022/03/09 03:49:54;;;;;;;14.48;6.85;;;;;;;;;;6318912;28;20178;-73
2022/03/09 03:53:00;;;;;;;15.82;6.22;;;;;;;;;;6319708;28;20040;-74
2022/03/09 03:56:06;;;;;;;18.02;6.47;;;;;;;;;;6319286;28;20134;-73
2022/03/09 03:59:10;;;;;;;15.48;6.47;;;;;;;;;;6318788;28;20036;-72
2022/03/09 04:02:13;;;;;;;22.33;6.68;;;;;;;;;;6319166;28;20054;-73
2022/03/09 04:05:19;;;;;;;12.52;6.65;;;;;;;;;;6319116;28;20406;-73
2022/03/09 04:08:23;;;;;;;13.25;6.25;;;;;;;;;;6318932;28;20052;-73
2022/03/09 04:11:27;;;;;;;13.23;5.50;;;;;;;;;;6299842;28;20044;-73
2022/03/09 04:14:30;;;;;;;15.30;6.15;;;;;;;;;;6319218;28;20056;-73
2022/03/09 04:17:43;;;;;;;13.00;6.65;;;;;;;;;;6317786;28;20445;-74
2022/03/09 04:20:46;;;;;;;14.48;6.82;;;;;;;;;;6318270;28;20048;-74
2022/03/09 04:23:49;;;;;;;15.32;6.45;;;;;;;;;;6300189;28;20051;-73
2022/03/09 04:26:53;;;;;;;14.18;7.20;;;;;;;;;;6318347;28;20044;-73
2022/03/09 04:29:59;;;;;;;16.83;7.00;;;;;;;;;;6300244;28;20073;-73
2022/03/09 04:33:04;;;;;;;15.60;6.63;;;;;;;;;;6299354;28;20055;-72
2022/03/09 04:36:07;;;;;;;12.55;5.88;;;;;;;;;;6300328;28;20490;-74
2022/03/09 04:39:14;;;;;;;14.02;7.13;;;;;;;;;;6317921;28;20046;-74
2022/03/09 04:42:18;;;;;;;13.93;5.95;;;;;;;;;;6299432;28;20044;-73
2022/03/09 04:45:21;;;;;;;17.13;6.75;;;;;;;;;;6318127;28;20125;-73
2022/03/09 04:48:25;;;;;;;16.85;6.55;;;;;;;;;;6317773;28;20048;-74
2022/03/09 04:51:28;;;;;;;14.52;6.40;;;;;;;;;;6299551;28;20543;-75
2022/03/09 04:54:31;;;;;;;16.13;6.50;;;;;;;;;;6317230;28;20050;-74
2022/03/09 04:57:37;;;;;;;17.30;7.25;;;;;;;;;;6317863;28;20039;-74
2022/03/09 05:00:41;;;;;;;13.27;6.35;;;;;;;;;;6317517;28;20478;-73
2022/03/09 05:03:44;;;;;;;13.40;6.03;;;;;;;;;;6317196;28;20056;-73
2022/03/09 05:06:47;;;;;;;13.00;5.70;;;;;;;;;;6317830;28;20048;-75
2022/03/09 05:09:50;;;;;;;15.73;6.80;;;;;;;;;;6299423;28;20040;-75
2022/03/09 05:12:56;;;;;;;15.27;7.00;;;;;;;;;;6298875;28;20101;-74
2022/03/09 05:15:59;;;;;;;16.30;6.45;;;;;;;;;;6316889;28;20494;-74
2022/03/09 05:19:04;;;;;;;15.15;6.35;;;;;;;;;;6317713;28;20050;-75
2022/03/09 05:22:10;;;;;;;13.82;6.30;;;;;;;;;;6317343;28;20515;-75
2022/03/09 05:25:23;;;;;;;15.52;6.72;;;;;;;;;;6298438;28;20387;-75
2022/03/09 05:28:27;;;;;;;19.73;8.43;;;;;;;;;;6316582;28;20763;-75
2022/03/09 05:31:31;;;;;;;15.70;8.02;;;;;;;;;;6317194;28;20047;-75
2022/03/09 05:34:34;;;;;;;18.23;8.43;;;;;;;;;;6298838;28;20089;-75
2022/03/09 05:37:38;;;;;;;15.90;8.55;;;;;;;;;;6316605;28;20043;-75
2022/03/09 05:40:43;;;;;;;17.80;7.57;;;;;;;;;;6317476;28;20460;-75
2022/03/09 05:43:51;;;;;;;15.40;6.57;;;;;;;;;;6317056;28;20055;-75
2022/03/09 05:46:56;;;;;;;14.63;6.40;;;;;;;;;;6316194;28;20070;-75
2022/03/09 05:50:03;;;;;;;14.82;6.95;;;;;;;;;;6317101;28;20761;-75
2022/03/09 05:53:07;;;;;;;14.02;6.30;;;;;;;;;;6316400;28;20051;-74
2022/03/09 05:56:10;;;;;;;15.50;6.25;;;;;;;;;;6298454;28;20047;-74
2022/03/09 05:59:15;;;;;;;13.98;6.70;;;;;;;;;;6298169;28;20607;-74
2022/03/09 06:02:21;;;;;;;12.73;6.28;;;;;;;;;;6298729;28;20051;-75
2022/03/09 06:05:25;;;;;;;18.42;7.13;;;;;;;;;;6316783;28;20119;-75
2022/03/09 06:08:29;;;;;;;14.02;6.20;;;;;;;;;;6297751;28;20051;-74
2022/03/09 06:11:32;;;;;;;18.88;7.07;;;;;;;;;;6316910;28;20052;-74
2022/03/09 06:14:39;;;;;;;16.25;7.20;;;;;;;;;;6316208;28;20066;-75
2022/03/09 06:17:46;;;;;;;21.48;7.18;;;;;;;;;;6316180;28;20086;-75
2022/03/09 06:20:50;;;;;;;16.13;6.72;;;;;;;;;;6298063;28;20048;-74
2022/03/09 06:23:53;;;;;;;16.13;7.32;;;;;;;;;;6316452;28;20117;-74
2022/03/09 06:26:56;;;;;;;15.40;6.55;;;;;;;;;;6298265;28;20051;-74
2022/03/09 06:30:01;;;;;;;15.80;6.75;;;;;;;;;;6315483;28;20044;-77
2022/03/09 06:33:04;;;;;;;16.27;7.38;;;;;;;;;;6298496;28;20048;-76
2022/03/09 06:36:08;;;;;;;17.23;7.05;;;;;;;;;;6316047;28;20154;-75
2022/03/09 06:39:14;;;;;;;15.25;7.55;;;;;;;;;;6315650;28;20040;-73
2022/03/09 06:42:19;;;;;;;18.50;7.80;;;;;;;;;;6320970;28;20044;-72
2022/03/09 06:45:27;;;;;;;23.63;8.32;;;;;;;;;;6303525;28;20074;-74
2022/03/09 06:48:30;;;;;;;25.20;8.75;;;;;;;;;;6320653;28;20547;-74
2022/03/09 06:51:38;;;;;;;24.48;9.88;;;;;;;;;;6285842;28;20904;-73
2022/03/09 06:54:41;;;;;;;20.58;9.60;;;;;;;;;;6302692;28;20052;-73
2022/03/09 06:57:45;;;;;;;19.88;8.82;;;;;;;;;;6320438;28;20044;-74
2022/03/09 07:00:50;;;;;;;20.73;10.02;;;;;;;;;;6301827;28;20048;-74
2022/03/09 07:03:53;;;;;;;24.07;10.70;;;;;;;;;;6302345;28;20051;-73
2022/03/09 07:06:59;;;;;;;20.90;11.20;;;;;;;;;;6320199;28;20762;-72
2022/03/09 07:10:05;;;;;;;22.20;10.55;;;;;;;;;;6302154;28;20054;-72
2022/03/09 07:13:08;;;;;;;21.25;10.50;;;;;;;;;;6319368;28;20125;-73
2022/03/09 07:16:15;;;;;;;23.08;11.45;;;;;;;;;;6320219;28;20052;-73
2022/03/09 07:19:21;;;;;;;22.25;11.50;;;;;;;;;;6320293;28;20072;-73
2022/03/09 07:22:28;;;;;;;21.08;11.00;;;;;;;;;;6319262;28;20419;-74
2022/03/09 07:25:34;;;;;;;22.55;10.60;;;;;;;;;;6302137;28;20048;-75
2022/03/09 07:28:44;;;;;;;23.50;11.52;;;;;;;;;;6319696;28;20101;-74
2022/03/09 07:31:48;;;;;;;21.30;11.38;;;;;;;;;;6319562;28;20044;-75
2022/03/09 07:34:52;;;;;;;19.13;10.20;;;;;;;;;;6318812;28;20036;-74
2022/03/09 07:37:56;;;;;;;18.05;10.45;;;;;;;;;;6301175;28;20040;-75
2022/03/09 07:41:00;;;;;;;20.85;9.27;;;;;;;;;;6319138;28;20051;-73
2022/03/09 07:44:03;;;;;;;24.20;11.45;;;;;;;;;;6334029;28;20044;-74
2022/03/09 07:47:09;;;;;;;22.95;10.35;;;;;;;;;;6300831;28;20055;-73
2022/03/09 07:50:12;;;;;;;18.98;10.20;;;;;;;;;;6300839;28;20047;-75
2022/03/09 07:53:17;;;;;;;25.80;10.77;;;;;;;;;;6299981;28;20066;-73
2022/03/09 07:56:20;;;;;;;38.60;17.08;;;;;;;;;;6300098;28;20036;-73
2022/03/09 07:59:26;;;;;;;46.97;19.58;;;;;;;;;;6318936;28;20051;-73
2022/03/09 08:02:31;;;;;;;23.38;11.20;;;;;;;;;;6318718;28;20074;-73
2022/03/09 08:05:35;;;;;;;85.72;43.67;;;;;;;;;;6318357;28;20354;-74
2022/03/09 08:08:38;;;;;;;27.95;12.35;;;;;;;;;;6300637;28;20048;-75
2022/03/09 08:11:46;;;;;;;39.55;19.05;;;;;;;;;;6300219;28;20047;-74
2022/03/09 08:14:49;;;;;;;18.77;10.75;;;;;;;;;;6318304;28;20085;-74
2022/03/09 08:17:54;;;;;;;18.63;10.80;;;;;;;;;;6299809;28;20051;-73
2022/03/09 08:20:57;;;;;;;18.58;10.55;;;;;;;;;;6299939;28;20040;-75
2022/03/09 08:24:00;;;;;;;20.00;9.77;;;;;;;;;;6317715;28;20071;-74
2022/03/09 08:27:04;;;;;;;19.60;10.65;;;;;;;;;;6317486;28;20477;-75
2022/03/09 08:30:08;;;;;;;21.58;9.45;;;;;;;;;;6300194;28;20044;-74
2022/03/09 08:33:14;;;;;;;15.55;8.90;;;;;;;;;;6299884;28;20465;-76
2022/03/09 08:36:18;;;;;;;16.48;9.15;;;;;;;;;;6317696;28;20326;-75
2022/03/09 08:39:21;;;;;;;17.13;8.82;;;;;;;;;;6299654;28;20048;-76
2022/03/09 08:42:27;;;;;;;15.15;8.80;;;;;;;;;;6317828;28;20097;-75
2022/03/09 08:45:31;;;;;;;13.07;8.15;;;;;;;;;;6299537;28;20055;-76
2022/03/09 08:48:36;;;;;;;15.95;7.78;;;;;;;;;;6317033;28;20036;-75
2022/03/09 08:51:42;;;;;;;19.52;8.43;;;;;;;;;;6318133;28;20048;-75
2022/03/09 08:54:45;;;;;;;15.43;8.48;;;;;;;;;;6317340;28;20090;-75
2022/03/09 08:57:50;;;;;;;12.18;7.40;;;;;;;;;;6316245;28;20151;-75
2022/03/09 09:00:57;;;;;;;14.85;8.05;;;;;;;;;;6317174;28;20052;-76
2022/03/09 09:04:05;;;;;;;16.83;8.38;;;;;;;;;;6317290;28;20511;-75
2022/03/09 09:07:09;;;;;;;16.05;8.88;;;;;;;;;;6317379;28;20093;-75
2022/03/09 09:10:12;;;;;;;15.27;8.20;;;;;;;;;;6298574;28;20641;-75
2022/03/09 09:13:18;;;;;;;12.13;7.25;;;;;;;;;;6299407;28;20040;-76
2022/03/09 09:16:22;;;;;;;11.82;6.50;;;;;;;;;;6316698;28;20056;-75
2022/03/09 09:19:27;;;;;;;14.52;7.53;;;;;;;;;;6316443;28;20051;-74
2022/03/09 09:22:30;;;;;;;11.95;7.07;;;;;;;;;;6316894;28;20409;-75
2022/03/09 09:25:54;;;;;;;15.05;8.82;;;;;;;;;;6298804;28;20044;-76
2022/03/09 09:28:57;;;;;;;14.68;8.25;;;;;;;;;;6316816;28;20082;-76
2022/03/09 09:32:01;;;;;;;13.45;8.68;;;;;;;;;;6331695;28;20090;-76
2022/03/09 09:35:06;;;;;;;16.45;8.88;;;;;;;;;;6298769;28;20056;-75
2022/03/09 09:38:10;;;;;;;11.48;7.50;;;;;;;;;;6297636;28;20047;-75
2022/03/09 09:41:18;;;;;;;13.68;7.97;;;;;;;;;;6297842;28;20052;-75
2022/03/09 09:44:26;;;;;;;12.40;7.85;;;;;;;;;;6298018;28;20059;-74
2022/03/09 09:47:32;;;;;;;19.17;9.20;;;;;;;;;;6333081;28;20174;-74
2022/03/09 09:50:39;;;;;;;12.80;8.13;;;;;;;;;;6316525;28;20055;-74
2022/03/09 09:53:42;;;;;;;15.75;8.55;;;;;;;;;;6297523;28;20055;-74
2022/03/09 09:56:46;;;;;;;20.55;9.50;;;;;;;;;;6316743;28;20040;-74
2022/03/09 09:59:51;;;;;;;13.88;8.45;;;;;;;;;;6315985;28;20151;-76
2022/03/09 10:02:55;;;;;;;16.98;10.15;;;;;;;;;;6315852;28;20040;-74
2022/03/09 10:05:59;;;;;;;14.82;8.52;;;;;;;;;;6314677;28;20040;-74
2022/03/09 10:09:08;;;;;;;13.52;7.97;;;;;;;;;;6297898;28;20055;-74
2022/03/09 10:12:13;;;;;;;13.90;7.82;;;;;;;;;;6315060;28;20475;-73
2022/03/09 10:15:16;;;;;;;11.30;7.38;;;;;;;;;;6298391;28;20056;-74
2022/03/09 10:18:22;;;;;;;15.55;9.05;;;;;;;;;;6321265;28;20048;-74
2022/03/09 10:21:37;;;;;;;15.90;8.55;;;;;;;;;;6320944;28;20055;-74
2022/03/09 10:24:40;;;;;;;16.15;9.68;;;;;;;;;;6301190;28;20121;-74
2022/03/09 10:27:46;;;;;;;;;;;;;;;;;;6300473;28;20410;-74
2022/03/09 10:30:49;;;;;;;20.08;10.65;;;;;;;;;;6317541;28;20309;-75
2022/03/09 10:34:03;;;;;;;19.30;10.45;;;;;;;;;;6283061;28;20478;-74
2022/03/09 10:37:09;;;;;;;;;;;;;;;;;;6299664;28;20079;-74
2022/03/09 10:40:17;;;;;;;16.83;9.15;;;;;;;;;;6318099;28;20013;-74
2022/03/09 10:43:25;;;;;;;17.17;9.93;;;;;;;;;;6300735;28;20044;-74
2022/03/09 10:46:41;;;;;;;17.40;10.05;;;;;;;;;;6320465;28;20051;-74
2022/03/09 10:49:47;;;;;;;18.42;11.15;;;;;;;;;;6320024;28;20047;-75
2022/03/09 10:52:52;;;;;;;19.52;12.07;;;;;;;;;;6286666;28;20040;-73
2022/03/09 10:56:00;;;;;;;19.20;10.82;;;;;;;;;;6301740;28;20040;-73
2022/03/09 10:59:11;;;;;;;19.75;10.68;;;;;;;;;;6301803;28;20048;-73
2022/03/09 11:02:15;;;;;;;19.20;11.98;;;;;;;;;;6302197;28;20150;-75
2022/03/09 11:05:22;;;;;;;16.65;10.38;;;;;;;;;;6302026;28;20485;-74
2022/03/09 11:08:26;;;;;;;18.70;11.63;;;;;;;;;;6302180;28;20040;-75
2022/03/09 11:11:33;;;;;;;;;;;;;;;;;;6319902;28;20097;-75
2022/03/09 11:14:40;;;;;;;20.85;11.32;;;;;;;;;;6301562;28;20010;-75
2022/03/09 11:17:43;;;;;;;20.63;13.00;;;;;;;;;;6285289;28;20101;-78
2022/03/09 11:20:49;;;;;;;;;;;;;;;;;;6319757;28;20465;-76
2022/03/09 11:23:53;;;;;;;19.92;12.80;;;;;;;;;;6301324;28;19955;-78
2022/03/09 11:26:57;;;;;;;21.10;13.38;;;;;;;;;;6318061;28;20122;-77
2022/03/09 11:30:20;;;;;;;19.17;11.35;;;;;;;;;;6300936;28;20067;-76
2022/03/09 11:33:36;;;;;;;18.85;11.20;;;;;;;;;;6300814;28;20059;-77
2022/03/09 11:36:39;;;;;;;15.68;10.07;;;;;;;;;;6301106;28;20040;-76
2022/03/09 11:40:09;;;;;;;16.65;10.02;;;;;;;;;;6319067;28;20094;-76
2022/03/09 11:43:29;;;;;;;15.32;9.90;;;;;;;;;;6318998;28;20086;-76
2022/03/09 11:47:00;;;;;;;13.93;9.05;;;;;;;;;;6333736;28;20040;-76
2022/03/09 11:50:06;;;;;;;14.73;8.77;;;;;;;;;;6318715;28;20056;-77
2022/03/09 11:53:09;;;;;;;13.88;8.40;;;;;;;;;;6319013;28;20044;-76
2022/03/09 11:56:27;;;;;;;13.27;7.90;;;;;;;;;;6300424;28;20048;-75
2022/03/09 11:59:33;;;;;;;15.93;9.57;;;;;;;;;;6317865;28;20064;-75
2022/03/09 12:02:42;;;;;;;19.58;10.13;;;;;;;;;;6300362;28;20044;-77
2022/03/09 12:05:46;;;;;;;16.15;9.50;;;;;;;;;;6318398;28;20052;-78
2022/03/09 12:08:49;;;;;;;16.95;9.63;;;;;;;;;;6299941;28;20036;-77
2022/03/09 12:12:08;;;;;;;15.25;9.25;;;;;;;;;;6316627;28;20113;-75
2022/03/09 12:15:13;;;;;;;14.02;8.43;;;;;;;;;;6318518;28;20052;-77
2022/03/09 12:18:49;;;;;;;12.68;8.48;;;;;;;;;;6317456;28;20124;-77
2022/03/09 12:22:04;;;;;;;16.15;9.73;;;;;;;;;;6317819;28;20040;-79
2022/03/09 12:25:29;;;;;;;14.80;9.20;;;;;;;;;;6317796;28;20496;-78
2022/03/09 12:28:45;;;;;;;15.40;9.70;;;;;;;;;;6299784;28;20052;-79
2022/03/09 12:32:00;;;;;;;14.23;8.95;;;;;;;;;;6299891;28;20075;-79
2022/03/09 12:35:08;;;;;;;17.65;10.15;;;;;;;;;;6317498;28;20065;-75
2022/03/09 12:38:14;;;;;;;14.20;9.30;;;;;;;;;;6316697;28;20094;-77
2022/03/09 12:41:25;;;;;;;16.50;9.85;;;;;;;;;;6316845;28;20409;-77
2022/03/09 12:44:30;;;;;;;17.35;9.60;;;;;;;;;;6282909;28;20058;-75
2022/03/09 12:47:35;;;;;;;14.48;9.02;;;;;;;;;;6281975;28;20119;-77
2022/03/09 12:50:40;;;;;;;14.88;8.57;;;;;;;;;;6317199;28;20044;-78
2022/03/09 12:53:44;;;;;;;14.85;8.55;;;;;;;;;;6332786;28;20041;-75
2022/03/09 12:56:49;;;;;;;15.07;8.33;;;;;;;;;;6315814;28;20044;-79
2022/03/09 12:59:54;;;;;;;14.48;8.70;;;;;;;;;;6313576;28;20396;-78
2022/03/09 13:03:00;;;;;;;12.37;8.10;;;;;;;;;;6315800;28;20063;-78
2022/03/09 13:06:23;;;;;;;;;;;;;;;;;;6314806;28;20469;-79
2022/03/09 13:09:30;;;;;;;13.13;8.13;;;;;;;;;;6279100;28;20021;-77
2022/03/09 13:12:36;;;;;;;15.10;8.07;;;;;;;;;;6295622;28;20075;-77
2022/03/09 13:15:43;;;;;;;12.90;7.38;;;;;;;;;;6313979;28;20524;-78
2022/03/09 13:18:47;;;;;;;17.60;9.77;;;;;;;;;;6297399;28;20044;-79
2022/03/09 13:21:53;;;;;;;15.27;8.95;;;;;;;;;;6298402;28;20048;-78
2022/03/09 13:25:02;;;;;;;15.27;9.13;;;;;;;;;;6282460;28;20055;-77
2022/03/09 13:28:06;;;;;;;15.35;8.73;;;;;;;;;;6316600;28;20040;-76
2022/03/09 13:31:09;;;;;;;12.65;7.43;;;;;;;;;;6316294;28;20052;-75
2022/03/09 13:34:14;;;;;;;13.70;7.90;;;;;;;;;;6298278;28;20056;-76
2022/03/09 13:37:32;;;;;;;10.55;7.80;;;;;;;;;;6300075;28;20482;-77
2022/03/09 13:40:44;;;;;;;13.05;7.45;;;;;;;;;;6298073;28;20047;-74
2022/03/09 13:43:48;;;;;;;11.23;6.97;;;;;;;;;;6316510;28;20048;-74
2022/03/09 13:47:01;;;;;;;9.80;6.82;;;;;;;;;;6298245;28;20165;-74
2022/03/09 13:50:05;;;;;;;10.68;6.75;;;;;;;;;;6297679;28;20520;-73
2022/03/09 13:53:10;;;;;;;14.68;6.22;;;;;;;;;;6316126;28;20044;-74
2022/03/09 13:56:19;;;;;;;10.43;6.53;;;;;;;;;;6315882;28;20048;-75
2022/03/09 13:59:37;;;;;;;12.85;6.40;;;;;;;;;;6316451;28;20413;-74
2022/03/09 14:02:40;;;;;;;12.90;7.90;;;;;;;;;;6297819;28;20050;-75
2022/03/09 14:05:45;;;;;;;62.88;43.25;;;;;;;;;;6316069;28;20051;-76
2022/03/09 14:08:49;;;;;;;14.40;8.13;;;;;;;;;;6315268;28;20040;-76
2022/03/09 14:11:54;;;;;;;11.98;8.07;;;;;;;;;;6316119;28;20637;-72
2022/03/09 14:14:58;;;;;;;;;;;;;;;;;;6331901;28;20063;-75
2022/03/09 14:18:02;;;;;;;11.90;7.43;;;;;;;;;;6315472;28;20411;-74
2022/03/09 14:21:05;;;;;;;10.48;7.13;;;;;;;;;;6298176;28;20048;-75
2022/03/09 14:24:12;;;;;;;14.15;7.47;;;;;;;;;;6315981;28;20048;-75
2022/03/09 14:27:17;;;;;;;12.13;7.15;;;;;;;;;;6316099;28;20051;-75
2022/03/09 14:30:23;;;;;;;26.25;9.35;;;;;;;;;;6315506;28;20485;-74
2022/03/09 14:33:26;;;;;;;11.15;6.85;;;;;;;;;;6315829;28;20410;-75
2022/03/09 14:36:32;;;;;;;12.20;7.28;;;;;;;;;;6297184;28;20048;-74
2022/03/09 14:39:36;;;;;;;14.57;7.88;;;;;;;;;;6314543;28;20044;-75
2022/03/09 14:42:41;;;;;;;13.40;8.25;;;;;;;;;;6314030;28;20524;-76
2022/03/09 14:45:45;;;;;;;12.50;7.60;;;;;;;;;;6296671;28;20044;-78
2022/03/09 14:48:48;;;;;;;13.95;8.73;;;;;;;;;;6295491;28;20126;-76
2022/03/09 14:51:53;;;;;;;12.00;7.80;;;;;;;;;;6314167;28;20052;-77
2022/03/09 14:54:58;;;;;;;17.10;8.27;;;;;;;;;;6296127;28;20047;-77
2022/03/09 14:58:05;;;;;;;13.73;8.88;;;;;;;;;;6312215;28;20048;-74
2022/03/09 15:01:09;;;;;;;11.95;7.55;;;;;;;;;;6314226;28;20051;-78
2022/03/09 15:04:13;;;;;;;16.17;8.45;;;;;;;;;;6300351;28;20059;-75
2022/03/09 15:07:18;;;;;;;16.92;7.57;;;;;;;;;;6318636;28;20040;-77
2022/03/09 15:10:22;;;;;;;;;;;;;;;;;;6300945;28;20074;-80
2022/03/09 15:13:29;;;;;;;17.45;8.32;;;;;;;;;;6318035;28;19927;-80
2022/03/09 15:16:34;;;;;;;13.50;7.73;;;;;;;;;;6318600;28;20055;-80
2022/03/09 15:19:38;;;;;;;14.23;8.18;;;;;;;;;;6319557;28;20465;-81
2022/03/09 15:22:41;;;;;;;13.18;7.95;;;;;;;;;;6300980;28;20032;-80
2022/03/09 15:26:03;;;;;;;12.30;7.55;;;;;;;;;;6301406;28;20053;-83
2022/03/09 15:29:08;;;;;;;12.05;7.03;;;;;;;;;;6319484;28;20044;-77
2022/03/09 15:32:12;;;;;;;12.40;6.70;;;;;;;;;;6317663;28;20159;-77
2022/03/09 15:35:15;;;;;;;13.45;7.63;;;;;;;;;;6300503;28;20044;-78
2022/03/09 15:38:38;;;;;;;12.73;6.88;;;;;;;;;;6319165;28;20055;-77
2022/03/09 15:41:42;;;;;;;13.93;8.07;;;;;;;;;;6300359;28;20048;-76
2022/03/09 15:44:46;;;;;;;15.73;7.63;;;;;;;;;;6318490;28;20040;-76
2022/03/09 15:47:53;;;;;;;14.82;8.27;;;;;;;;;;6317820;28;20134;-80
2022/03/09 15:50:56;;;;;;;17.05;8.27;;;;;;;;;;6298354;28;20113;-77
2022/03/09 15:54:00;;;;;;;24.60;8.63;;;;;;;;;;6317950;28;20055;-77
2022/03/09 15:57:04;;;;;;;15.23;7.85;;;;;;;;;;6300311;28;20036;-77
2022/03/09 16:00:13;;;;;;;18.42;8.27;;;;;;;;;;6300189;28;20513;-75
2022/03/09 16:03:16;;;;;;;14.55;7.90;;;;;;;;;;6317634;28;20080;-76
2022/03/09 16:06:22;;;;;;;14.43;8.25;;;;;;;;;;6299519;28;20044;-75
2022/03/09 16:09:25;;;;;;;34.15;8.77;;;;;;;;;;6299411;28;20193;-75
2022/03/09 16:12:31;;;;;;;13.35;7.53;;;;;;;;;;6296967;28;20056;-75
2022/03/09 16:15:35;;;;;;;12.25;6.95;;;;;;;;;;6316758;28;20052;-76
2022/03/09 16:18:46;;;;;;;13.93;7.60;;;;;;;;;;6317332;28;20043;-74
2022/03/09 16:21:51;;;;;;;13.90;7.20;;;;;;;;;;6315989;28;20059;-75
2022/03/09 16:24:56;;;;;;;;;;;;;;;;;;6299113;28;20454;-75
2022/03/09 16:27:59;;;;;;;42.67;9.25;;;;;;;;;;6317511;28;19920;-75
2022/03/09 16:31:05;;;;;;;13.90;7.40;;;;;;;;;;6317575;28;20457;-73
2022/03/09 16:34:08;;;;;;;14.68;7.97;;;;;;;;;;6317814;28;20048;-74
2022/03/09 16:37:12;;;;;;;13.32;7.82;;;;;;;;;;6299411;28;20079;-74
2022/03/09 16:40:17;;;;;;;13.10;7.35;;;;;;;;;;6299328;28;20411;-73
2022/03/09 16:43:22;;;;;;;14.77;7.70;;;;;;;;;;6317865;28;20058;-76
2022/03/09 16:46:27;;;;;;;14.25;7.70;;;;;;;;;;6317159;28;20387;-76
2022/03/09 16:49:33;;;;;;;13.63;7.63;;;;;;;;;;6316986;28;20056;-77
2022/03/09 16:52:37;;;;;;;15.70;8.48;;;;;;;;;;6317484;28;20043;-77
2022/03/09 16:55:43;;;;;;;13.50;7.20;;;;;;;;;;6299051;28;20044;-74
2022/03/09 16:58:47;;;;;;;13.30;7.80;;;;;;;;;;6298752;28;20051;-78
2022/03/09 17:01:52;;;;;;;13.20;7.63;;;;;;;;;;6298709;28;20047;-77
2022/03/09 17:04:56;;;;;;;14.18;7.63;;;;;;;;;;6299008;28;20051;-77
2022/03/09 17:08:01;;;;;;;13.48;7.78;;;;;;;;;;6298150;28;20162;-80
2022/03/09 17:11:04;;;;;;;14.50;7.32;;;;;;;;;;6282442;28;20397;-77
2022/03/09 17:14:08;;;;;;;13.80;7.90;;;;;;;;;;6317213;28;20039;-75
2022/03/09 17:17:13;;;;;;;13.07;7.70;;;;;;;;;;6298428;28;20572;-78
2022/03/09 17:20:22;;;;;;;11.45;6.65;;;;;;;;;;6316148;28;20036;-77
2022/03/09 17:23:28;;;;;;;13.60;7.75;;;;;;;;;;6280414;28;20055;-77
2022/03/09 17:26:37;;;;;;;14.13;6.90;;;;;;;;;;6296590;28;20513;-77
2022/03/09 17:29:42;;;;;;;13.32;6.85;;;;;;;;;;6314908;28;20044;-75
2022/03/09 17:32:49;;;;;;;18.17;7.10;;;;;;;;;;6295693;28;20448;-77
2022/03/09 17:35:52;;;;;;;12.80;6.30;;;;;;;;;;6296439;28;20134;-74
2022/03/09 17:38:58;;;;;;;13.13;6.68;;;;;;;;;;6294079;28;20748;-74
2022/03/09 17:42:01;;;;;;;13.90;6.13;;;;;;;;;;6313393;28;20036;-77
2022/03/09 17:45:11;;;;;;;14.07;6.50;;;;;;;;;;6295065;28;20044;-76
2022/03/09 17:48:16;;;;;;;11.68;6.25;;;;;;;;;;6311887;28;20674;-77
2022/03/09 17:51:22;;;;;;;16.83;6.50;;;;;;;;;;6294836;28;20495;-75
2022/03/09 17:54:31;;;;;;;12.05;6.20;;;;;;;;;;6315685;28;20119;-77
2022/03/09 17:57:37;;;;;;;10.02;5.88;;;;;;;;;;6281607;28;20434;-76
2022/03/09 18:00:41;;;;;;;41.72;9.27;;;;;;;;;;6315836;28;20054;-76
2022/03/09 18:03:47;;;;;;;17.53;6.40;;;;;;;;;;6297503;28;20048;-78
2022/03/09 18:06:50;;;;;;;12.77;6.10;;;;;;;;;;6297593;28;20048;-75
2022/03/09 18:09:56;;;;;;;12.57;6.40;;;;;;;;;;6297820;28;20509;-78
2022/03/09 18:13:00;;;;;;;10.30;5.57;;;;;;;;;;6297870;28;20048;-75
2022/03/09 18:16:04;;;;;;;10.65;5.68;;;;;;;;;;6297555;28;20056;-75
2022/03/09 18:19:09;;;;;;;11.95;5.55;;;;;;;;;;6298072;28;20169;-74
2022/03/09 18:22:13;;;;;;;11.40;5.60;;;;;;;;;;6297506;28;20052;-75